Time;durP1;ratioP1;P1;durP2;ratioP2;P2;SDS_P1;SDS_P2;PMS_P1;PMS_P2;Temp;Humidity;BMP_temperature;BMP_pressure;BME280_temperature;BME280_humidity;BME280_pressure;Samples;Min_cycle;Max_cycle;Signal;HPM_P1;HPM_P2
2022/03/13 00:02:07;;;;;;;8.20;7.80;;;;;;;-0.04;100.00;101743.63;5037376;28;20496;-71
2022/03/13 00:04:35;;;;;;;8.20;7.80;;;;;;;0.07;100.00;101731.78;5013273;28;20121;-71
2022/03/13 00:07:08;;;;;;;8.68;8.18;;;;;;;0.07;100.00;101730.00;5044690;28;20700;-71
2022/03/13 00:09:34;;;;;;;8.07;7.68;;;;;;;0.07;100.00;101731.78;5032121;28;20108;-70
2022/03/13 00:12:04;;;;;;;7.97;7.57;;;;;;;0.06;100.00;101727.50;5030552;28;20109;-71
2022/03/13 00:14:30;;;;;;;8.38;7.95;;;;;;;-0.18;100.00;101721.75;5031033;28;20063;-70
2022/03/13 00:16:57;;;;;;;8.88;8.38;;;;;;;-0.20;100.00;101702.72;5031924;28;20056;-71
2022/03/13 00:19:25;;;;;;;8.18;7.78;;;;;;;-0.19;100.00;101702.66;5025181;28;20078;-70
2022/03/13 00:21:53;;;;;;;9.15;8.63;;;;;;;-0.13;100.00;101699.75;5041266;28;20029;-70
2022/03/13 00:24:20;;;;;;;8.55;8.05;;;;;;;-0.14;100.00;101703.28;5025535;28;20377;-71
2022/03/13 00:26:52;;;;;;;8.20;7.80;;;;;;;-0.23;100.00;101700.25;5033479;28;20028;-71
2022/03/13 00:29:20;;;;;;;8.63;8.13;;;;;;;-0.40;100.00;101678.47;5031337;28;20068;-71
2022/03/13 00:31:46;;;;;;;8.63;8.13;;;;;;;-0.32;100.00;101693.75;5041829;28;20053;-70
2022/03/13 00:34:12;;;;;;;8.85;8.35;;;;;;;-0.40;100.00;101678.47;5033538;28;20033;-70
2022/03/13 00:36:37;;;;;;;8.85;8.35;;;;;;;-0.47;100.00;101684.91;5030075;28;20048;-72
2022/03/13 00:39:03;;;;;;;8.40;7.97;;;;;;;-0.75;100.00;101684.56;5031817;28;20053;-71
2022/03/13 00:41:29;;;;;;;8.13;7.72;;;;;;;-0.87;100.00;101689.47;5030084;28;20036;-71
2022/03/13 00:43:55;;;;;;;8.55;8.13;;;;;;;-0.95;100.00;101672.53;5032766;28;20022;-70
2022/03/13 00:46:20;;;;;;;8.85;8.35;;;;;;;-0.76;100.00;101672.47;5021800;28;20032;-71
2022/03/13 00:48:46;;;;;;;8.75;8.25;;;;;;;-0.72;100.00;101669.66;5023808;28;20025;-70
2022/03/13 00:51:11;;;;;;;8.68;8.18;;;;;;;-0.68;100.00;101670.31;5031538;28;20033;-70
2022/03/13 00:53:38;;;;;;;8.65;8.15;;;;;;;-0.68;100.00;101659.91;5031281;28;20037;-71
2022/03/13 00:56:04;;;;;;;8.13;7.72;;;;;;;-0.54;100.00;101670.50;5031602;28;20040;-71
2022/03/13 00:58:30;;;;;;;8.95;8.40;;;;;;;-0.53;100.00;101663.53;5042245;28;20041;-71
2022/03/13 01:00:55;;;;;;;8.77;8.27;;;;;;;-0.54;100.00;101665.28;5032744;28;20036;-72
2022/03/13 01:03:37;;;;;;;8.48;7.97;;;;;;;-0.57;100.00;101668.06;5030037;28;20029;-72
2022/03/13 01:06:07;;;;;;;8.43;7.95;;;;;;;-0.48;100.00;101666.75;5024041;28;20110;-71
2022/03/13 01:08:33;;;;;;;8.55;8.05;;;;;;;-0.44;100.00;101657.84;5030218;28;20063;-71
2022/03/13 01:11:00;;;;;;;8.13;7.72;;;;;;;-0.38;100.00;101662.75;5031579;28;20053;-71
2022/03/13 01:13:26;;;;;;;8.32;7.93;;;;;;;-0.44;100.00;101657.84;5039546;28;20031;-72
2022/03/13 01:15:59;;;;;;;8.32;7.90;;;;;;;-0.54;100.00;101664.44;5031607;28;20127;-73
2022/03/13 01:18:26;;;;;;;8.48;7.97;;;;;;;-0.67;100.00;101649.41;5030184;28;20116;-73
2022/03/13 01:20:51;;;;;;;8.43;7.97;;;;;;;-0.55;100.00;101661.00;5038976;28;20021;-73
2022/03/13 01:23:17;;;;;;;8.43;7.97;;;;;;;-0.64;100.00;101656.25;5031188;28;20026;-73
2022/03/13 01:25:42;;;;;;;8.77;8.27;;;;;;;-0.76;100.00;101646.41;5030184;28;20091;-73
2022/03/13 01:28:09;;;;;;;8.70;8.20;;;;;;;-0.74;100.00;101649.78;5031393;28;20064;-72
2022/03/13 01:30:35;;;;;;;8.57;8.07;;;;;;;-0.72;100.00;101654.03;5029918;28;20025;-72
2022/03/13 01:33:03;;;;;;;8.50;8.05;;;;;;;-0.73;100.00;101651.50;5029834;28;20025;-72
2022/03/13 01:35:30;;;;;;;8.90;8.40;;;;;;;-0.68;100.00;101646.88;5030972;28;20076;-73
2022/03/13 01:37:57;;;;;;;8.55;8.05;;;;;;;-0.81;100.00;101635.34;5029527;28;20029;-73
2022/03/13 01:40:24;;;;;;;8.30;7.90;;;;;;;-0.77;100.00;101645.56;5031250;28;20076;-72
2022/03/13 01:42:51;;;;;;;9.05;8.52;;;;;;;-0.82;100.00;101647.53;5038344;28;20075;-70
2022/03/13 01:45:19;;;;;;;8.90;8.40;;;;;;;-0.79;100.00;101641.38;5052250;28;20108;-72
2022/03/13 01:47:46;;;;;;;8.50;8.00;;;;;;;-0.75;100.00;101654.16;5046208;28;20114;-72
2022/03/13 01:50:13;;;;;;;7.90;7.50;;;;;;;-0.78;100.00;101646.50;5031703;28;20116;-71
2022/03/13 01:52:41;;;;;;;8.30;7.88;;;;;;;-0.74;100.00;101655.84;5034961;28;20029;-73
2022/03/13 01:55:07;;;;;;;8.10;7.70;;;;;;;-0.65;100.00;101644.97;5034599;28;20032;-71
2022/03/13 01:57:37;;;;;;;8.05;7.65;;;;;;;-0.66;100.00;101645.03;5035260;28;20044;-71
2022/03/13 02:00:06;;;;;;;8.45;8.00;;;;;;;-0.69;100.00;101637.38;5034448;28;20028;-71
2022/03/13 02:02:33;;;;;;;8.20;7.80;;;;;;;-0.70;100.00;101648.72;5016314;28;20493;-73
2022/03/13 02:04:59;;;;;;;8.40;7.90;;;;;;;-0.66;100.00;101642.44;5032652;28;20033;-72
2022/03/13 02:07:27;;;;;;;8.32;7.82;;;;;;;-0.74;100.00;101637.59;5034413;28;20083;-71
2022/03/13 02:09:53;;;;;;;8.15;7.75;;;;;;;-0.60;100.00;101655.16;5034426;28;20503;-72
2022/03/13 02:12:20;;;;;;;8.30;7.85;;;;;;;-0.64;100.00;101645.81;5018505;28;20022;-71
2022/03/13 02:14:47;;;;;;;8.45;7.95;;;;;;;-0.69;100.00;101645.19;5028094;28;20061;-73
2022/03/13 02:17:23;;;;;;;8.70;8.20;;;;;;;-0.66;100.00;101647.63;5034245;28;20044;-72
2022/03/13 02:19:48;;;;;;;8.15;7.75;;;;;;;-0.56;100.00;101643.69;5033307;28;20052;-72
2022/03/13 02:22:15;;;;;;;8.00;7.60;;;;;;;-0.57;100.00;101642.00;5033990;28;20021;-72
2022/03/13 02:24:40;;;;;;;8.13;7.72;;;;;;;-0.65;100.00;101633.72;5034111;28;20025;-71
2022/03/13 02:27:06;;;;;;;7.60;7.20;;;;;;;-0.59;100.00;101641.22;5033681;28;20032;-72
2022/03/13 02:29:32;;;;;;;8.85;8.35;;;;;;;-0.51;100.00;101633.88;5032325;28;20041;-72
2022/03/13 02:31:59;;;;;;;8.05;7.65;;;;;;;-0.48;100.00;101636.31;5035216;28;20389;-72
2022/03/13 02:34:25;;;;;;;8.00;7.60;;;;;;;-0.55;100.00;101629.72;5030525;28;20045;-72
2022/03/13 02:37:02;;;;;;;8.02;7.63;;;;;;;-0.50;100.00;101635.56;5037658;28;20025;-72
2022/03/13 02:39:29;;;;;;;8.25;7.80;;;;;;;-0.66;100.00;101630.28;5033449;28;20119;-71
2022/03/13 02:41:55;;;;;;;8.65;8.15;;;;;;;-0.65;100.00;101638.94;5034794;28;20381;-71
2022/03/13 02:44:20;;;;;;;8.60;8.10;;;;;;;-0.60;100.00;101636.91;5047532;28;20039;-72
2022/03/13 02:46:45;;;;;;;8.10;7.70;;;;;;;-0.55;100.00;101632.34;5036864;28;20029;-70
2022/03/13 02:49:15;;;;;;;7.80;7.40;;;;;;;-0.52;100.00;101628.72;5052142;28;20021;-71
2022/03/13 02:51:42;;;;;;;8.48;7.97;;;;;;;-0.50;100.00;101616.47;5025606;28;20026;-71
2022/03/13 02:54:08;;;;;;;8.05;7.65;;;;;;;-0.44;100.00;101627.44;5025075;28;20098;-71
2022/03/13 02:56:35;;;;;;;8.07;7.68;;;;;;;-0.49;100.00;101632.03;5032008;28;20605;-70
2022/03/13 02:59:00;;;;;;;7.88;7.47;;;;;;;-0.45;100.00;101630.94;5033769;28;20073;-71
2022/03/13 03:01:26;;;;;;;8.10;7.63;;;;;;;-0.45;100.00;101628.34;5040046;28;20072;-72
2022/03/13 03:04:00;;;;;;;8.13;7.68;;;;;;;-0.39;100.00;101632.41;5033391;28;20032;-72
2022/03/13 03:06:29;;;;;;;8.43;7.93;;;;;;;-0.35;100.00;101633.94;5043930;28;20555;-72
2022/03/13 03:08:54;;;;;;;8.82;8.32;;;;;;;-0.40;100.00;101628.97;5049720;28;20028;-71
2022/03/13 03:11:20;;;;;;;8.00;7.60;;;;;;;-0.45;100.00;101633.53;5035288;28;20030;-71
2022/03/13 03:13:45;;;;;;;8.13;7.63;;;;;;;-0.36;100.00;101632.28;5032725;28;20025;-70
2022/03/13 03:16:11;;;;;;;8.55;8.05;;;;;;;-0.37;100.00;101623.59;5057376;28;20594;-71
2022/03/13 03:18:36;;;;;;;8.15;7.68;;;;;;;-0.37;100.00;101628.81;5048242;28;20032;-72
2022/03/13 03:21:03;;;;;;;8.57;8.07;;;;;;;-0.33;100.00;101629.50;5051520;28;20028;-72
2022/03/13 03:23:29;;;;;;;7.95;7.55;;;;;;;-0.29;100.00;101629.28;5043561;28;20405;-71
2022/03/13 03:25:55;;;;;;;7.88;7.47;;;;;;;-0.44;99.87;101605.72;5032925;28;20025;-71
2022/03/13 03:28:22;;;;;;;8.57;8.07;;;;;;;-0.41;99.94;101626.44;5031250;28;20388;-72
2022/03/13 03:30:48;;;;;;;7.90;7.50;;;;;;;-0.33;99.62;101624.28;5036005;28;20033;-71
2022/03/13 03:33:13;;;;;;;8.35;7.85;;;;;;;-0.50;98.98;101611.25;5043852;28;20025;-73
2022/03/13 03:35:39;;;;;;;7.90;7.50;;;;;;;-0.34;99.99;101625.19;5037383;28;20084;-72
2022/03/13 03:38:04;;;;;;;8.57;8.07;;;;;;;-0.39;97.95;101624.59;5039007;28;20104;-72
2022/03/13 03:40:32;;;;;;;8.20;7.80;;;;;;;-0.30;97.96;101632.78;5032604;28;20033;-72
2022/03/13 03:43:03;;;;;;;7.80;7.40;;;;;;;-0.37;96.97;101617.53;5043546;28;20029;-71
2022/03/13 03:45:31;;;;;;;7.80;7.40;;;;;;;-0.36;97.30;101625.28;5039550;28;20444;-71
2022/03/13 03:47:57;;;;;;;8.48;7.97;;;;;;;-0.38;97.42;101613.22;5034221;28;20099;-71
2022/03/13 03:50:24;;;;;;;8.68;8.18;;;;;;;-0.29;97.63;101629.28;5032152;28;20032;-70
2022/03/13 03:52:55;;;;;;;7.88;7.47;;;;;;;-0.29;97.26;101638.84;5032369;28;20033;-71
2022/03/13 03:55:23;;;;;;;7.90;7.50;;;;;;;-0.26;93.73;101638.69;5032563;28;20033;-72
2022/03/13 03:57:48;;;;;;;8.18;7.75;;;;;;;-0.15;89.53;101636.38;5031996;28;20146;-72
2022/03/13 04:00:14;;;;;;;8.45;7.95;;;;;;;-0.06;87.45;101643.75;5052006;28;20028;-73
2022/03/13 04:02:41;;;;;;;8.02;7.63;;;;;;;-0.02;87.32;101639.19;5030773;28;20029;-72
2022/03/13 04:05:08;;;;;;;8.55;8.05;;;;;;;-0.05;86.52;101624.56;5029152;28;20025;-72
2022/03/13 04:07:33;;;;;;;8.52;8.02;;;;;;;0.04;82.36;101631.06;5032645;28;20037;-72
2022/03/13 04:09:59;;;;;;;8.65;8.15;;;;;;;0.04;82.13;101628.44;5032254;28;20492;-72
2022/03/13 04:12:25;;;;;;;8.10;7.70;;;;;;;0.10;81.00;101638.56;5047822;28;20029;-72
2022/03/13 04:14:52;;;;;;;8.93;8.43;;;;;;;0.15;80.01;101638.34;5052075;28;20048;-70
2022/03/13 04:17:18;;;;;;;8.18;7.72;;;;;;;0.14;77.68;101640.06;5031886;28;20100;-71
2022/03/13 04:19:44;;;;;;;7.82;7.43;;;;;;;0.21;76.72;101640.59;5024434;28;20455;-71
2022/03/13 04:22:09;;;;;;;7.90;7.50;;;;;;;0.12;77.12;101636.72;5029325;28;20030;-71
2022/03/13 04:24:35;;;;;;;7.80;7.40;;;;;;;0.17;78.26;101641.69;5030578;28;20086;-72
2022/03/13 04:27:01;;;;;;;8.65;8.15;;;;;;;0.19;78.34;101638.06;5030662;28;20049;-71
2022/03/13 04:29:27;;;;;;;8.73;8.23;;;;;;;0.21;78.19;101643.22;5011188;28;20064;-71
2022/03/13 04:31:54;;;;;;;8.07;7.68;;;;;;;0.22;78.59;101630.09;5039966;28;20410;-70
2022/03/13 04:34:20;;;;;;;8.38;7.88;;;;;;;0.33;78.75;101650.41;5020036;28;20050;-70
2022/03/13 04:36:46;;;;;;;8.40;7.90;;;;;;;0.53;78.29;101658.00;5031427;28;20381;-70
2022/03/13 04:39:12;;;;;;;7.82;7.43;;;;;;;0.73;77.60;101650.84;5029429;28;20033;-71
2022/03/13 04:41:38;;;;;;;7.95;7.55;;;;;;;0.77;76.80;101661.06;5031756;28;20129;-70
2022/03/13 04:44:05;;;;;;;7.90;7.50;;;;;;;0.81;75.96;101661.75;5034535;28;20025;-71
2022/03/13 04:46:33;;;;;;;7.63;7.22;;;;;;;0.94;75.21;101656.66;5031239;28;20444;-72
2022/03/13 04:48:58;;;;;;;7.68;7.28;;;;;;;0.90;76.03;101660.41;5025495;28;20029;-72
2022/03/13 04:51:24;;;;;;;8.25;7.80;;;;;;;0.98;74.87;101671.25;5029924;28;20071;-72
2022/03/13 04:53:50;;;;;;;8.27;7.80;;;;;;;1.18;74.43;101660.53;5032822;28;20464;-71
2022/03/13 04:56:17;;;;;;;7.72;7.32;;;;;;;1.28;73.28;101666.94;5040277;28;20031;-71
2022/03/13 04:58:43;;;;;;;7.63;7.22;;;;;;;1.39;72.68;101664.53;5049418;28;20037;-71
2022/03/13 05:01:08;;;;;;;7.72;7.32;;;;;;;1.52;72.29;101675.13;5034890;28;20099;-71
2022/03/13 05:03:34;;;;;;;7.80;7.40;;;;;;;1.62;71.71;101672.84;5031250;28;20029;-71
2022/03/13 05:06:05;;;;;;;8.30;7.82;;;;;;;2.22;69.06;101670.97;5030022;28;20442;-71
2022/03/13 05:08:31;;;;;;;7.63;7.22;;;;;;;2.83;67.57;101673.38;5024417;28;20038;-71
2022/03/13 05:10:59;;;;;;;7.90;7.50;;;;;;;3.55;65.81;101666.94;5017901;28;20017;-71
2022/03/13 05:13:25;;;;;;;8.15;7.68;;;;;;;4.44;62.04;101667.81;5016329;28;20029;-72
2022/03/13 05:15:52;;;;;;;7.72;7.32;;;;;;;6.05;56.80;101675.34;5037108;28;20021;-72
2022/03/13 05:18:18;;;;;;;7.90;7.50;;;;;;;6.75;52.93;101682.19;5023221;28;20025;-72
2022/03/13 05:20:45;;;;;;;7.63;7.22;;;;;;;7.59;51.51;101691.22;5039582;28;20037;-72
2022/03/13 05:23:11;;;;;;;7.70;7.30;;;;;;;9.02;46.87;101687.78;5033681;28;20025;-71
2022/03/13 05:25:38;;;;;;;7.80;7.40;;;;;;;8.79;46.04;101682.72;5035196;28;20049;-71
2022/03/13 05:28:06;;;;;;;7.70;7.30;;;;;;;9.27;45.18;101697.06;5036197;28;20057;-72
2022/03/13 05:30:32;;;;;;;7.68;7.28;;;;;;;9.79;43.82;101692.31;5035031;28;20044;-70
2022/03/13 05:32:58;;;;;;;7.88;7.47;;;;;;;10.12;42.22;101696.28;5034937;28;20025;-72
2022/03/13 05:35:25;;;;;;;8.07;7.68;;;;;;;10.98;41.20;101695.16;5036630;28;20155;-70
2022/03/13 05:37:51;;;;;;;7.95;7.55;;;;;;;11.64;39.56;101696.63;5041310;28;20025;-71
2022/03/13 05:40:19;;;;;;;7.90;7.50;;;;;;;11.42;39.20;101689.97;5035282;28;20076;-71
2022/03/13 05:42:47;;;;;;;7.82;7.43;;;;;;;12.09;38.00;101699.19;5017891;28;20445;-71
2022/03/13 05:45:19;;;;;;;7.40;7.10;;;;;;;12.43;37.63;101701.91;5033428;28;20025;-73
2022/03/13 05:47:54;;;;;;;8.00;7.60;;;;;;;13.21;35.49;101706.22;5034852;28;20108;-72
2022/03/13 05:50:22;;;;;;;7.43;7.13;;;;;;;13.55;35.15;101706.94;5041732;28;20082;-72
2022/03/13 05:52:49;;;;;;;8.25;7.85;;;;;;;14.53;33.63;101711.38;5048671;28;20108;-72
2022/03/13 05:55:16;;;;;;;8.50;8.10;;;;;;;14.93;32.87;101710.38;5034012;28;20033;-73
2022/03/13 05:57:41;;;;;;;8.05;7.65;;;;;;;14.82;32.75;101716.09;5022751;28;20029;-73
2022/03/13 06:00:10;;;;;;;8.00;7.60;;;;;;;14.83;33.16;101712.41;5032906;28;20136;-74
2022/03/13 06:02:38;;;;;;;8.23;7.82;;;;;;;15.47;32.02;101719.25;5050645;28;20029;-74
2022/03/13 06:05:05;;;;;;;7.88;7.53;;;;;;;15.75;31.45;101724.09;5039268;28;20021;-73
2022/03/13 06:07:30;;;;;;;7.50;7.20;;;;;;;16.02;30.78;101706.66;5036135;28;20037;-73
2022/03/13 06:10:02;;;;;;;7.88;7.53;;;;;;;16.41;30.02;101729.69;5034477;28;20033;-74
2022/03/13 06:12:27;;;;;;;8.05;7.68;;;;;;;16.50;29.96;101733.94;5032841;28;20048;-74
2022/03/13 06:14:53;;;;;;;7.72;7.43;;;;;;;16.84;29.75;101723.53;5044775;28;20060;-74
2022/03/13 06:17:18;;;;;;;8.35;7.95;;;;;;;17.31;29.27;101734.78;5038613;28;20496;-74
2022/03/13 06:19:44;;;;;;;7.88;7.57;;;;;;;17.01;29.44;101737.53;5036283;28;20534;-75
2022/03/13 06:22:11;;;;;;;8.68;8.27;;;;;;;16.91;29.18;101734.34;5034305;28;20445;-74
2022/03/13 06:24:38;;;;;;;7.72;7.43;;;;;;;16.10;30.36;101744.06;5034386;28;20028;-74
2022/03/13 06:27:05;;;;;;;8.63;8.23;;;;;;;17.42;28.58;101741.53;5034113;28;20583;-73
2022/03/13 06:29:31;;;;;;;8.25;7.85;;;;;;;18.26;28.42;101750.56;5032435;28;20030;-75
2022/03/13 06:31:57;;;;;;;8.43;8.02;;;;;;;17.58;28.40;101741.28;5033828;28;20554;-75
2022/03/13 06:34:23;;;;;;;8.25;7.85;;;;;;;17.87;28.22;101749.22;5033620;28;20041;-74
2022/03/13 06:36:48;;;;;;;8.10;7.72;;;;;;;18.43;27.02;101733.13;5039302;28;20089;-75
2022/03/13 06:39:14;;;;;;;8.15;7.78;;;;;;;17.27;27.25;101737.03;5033956;28;20378;-75
2022/03/13 06:41:39;;;;;;;9.10;8.70;;;;;;;18.36;26.17;101747.53;5033395;28;20029;-75
2022/03/13 06:44:05;;;;;;;8.63;8.23;;;;;;;17.88;26.36;101750.06;5038670;28;20544;-75
2022/03/13 06:46:32;;;;;;;8.13;7.80;;;;;;;18.02;26.26;101735.72;5042412;28;20034;-75
2022/03/13 06:48:59;;;;;;;8.48;8.07;;;;;;;17.93;25.85;101743.09;5033985;28;20029;-74
2022/03/13 06:51:24;;;;;;;8.63;8.23;;;;;;;17.52;25.58;101740.19;5044873;28;20040;-72
2022/03/13 06:53:50;;;;;;;8.25;7.85;;;;;;;17.57;26.15;101742.31;5034935;28;20091;-73
2022/03/13 06:56:15;;;;;;;8.32;7.93;;;;;;;17.21;25.93;101729.75;5033441;28;20392;-74
2022/03/13 06:58:41;;;;;;;8.30;7.90;;;;;;;17.16;26.11;101734.00;5033438;28;20021;-74
2022/03/13 07:01:06;;;;;;;9.05;8.65;;;;;;;16.11;26.64;101735.00;5032359;28;20021;-74
2022/03/13 07:03:33;;;;;;;8.20;7.80;;;;;;;15.63;27.70;101741.56;5031517;28;20116;-74
2022/03/13 07:05:58;;;;;;;8.10;7.80;;;;;;;14.80;28.82;101736.81;5033255;28;20396;-74
2022/03/13 07:08:24;;;;;;;8.38;7.97;;;;;;;14.85;28.65;101747.84;5039341;28;20108;-72
2022/03/13 07:10:50;;;;;;;8.55;8.15;;;;;;;13.79;30.35;101747.94;5031699;28;20060;-73
2022/03/13 07:13:18;;;;;;;8.95;8.55;;;;;;;14.26;29.69;101756.13;5031886;28;20400;-73
2022/03/13 07:15:44;;;;;;;8.68;8.27;;;;;;;13.08;31.49;101751.94;5002373;28;20037;-73
2022/03/13 07:18:09;;;;;;;8.23;7.82;;;;;;;13.03;30.68;101748.09;5030500;28;20025;-73
2022/03/13 07:20:35;;;;;;;8.50;8.10;;;;;;;12.41;30.96;101748.25;5027677;28;20389;-72
2022/03/13 07:23:00;;;;;;;8.68;8.27;;;;;;;12.09;32.27;101754.19;5032490;28;20025;-74
2022/03/13 07:25:26;;;;;;;8.80;8.40;;;;;;;12.83;31.22;101752.81;5022839;28;20026;-73
2022/03/13 07:27:52;;;;;;;8.52;8.13;;;;;;;12.77;31.57;101753.47;5023627;28;20038;-74
2022/03/13 07:30:18;;;;;;;8.73;8.32;;;;;;;12.57;31.80;101755.53;5045831;28;20047;-71
2022/03/13 07:32:45;;;;;;;7.97;7.57;;;;;;;12.99;32.36;101756.38;5033189;28;20112;-78
2022/03/13 07:35:12;;;;;;;8.52;8.13;;;;;;;13.19;30.78;101764.13;5037742;28;20041;-77
2022/03/13 07:37:38;;;;;;;8.45;8.05;;;;;;;12.90;30.93;101754.69;5038800;28;20048;-77
2022/03/13 07:40:04;;;;;;;8.70;8.30;;;;;;;12.91;30.84;101755.53;5020246;28;20521;-78
2022/03/13 07:42:30;;;;;;;8.75;8.35;;;;;;;12.99;30.04;101768.88;5039299;28;20060;-77
2022/03/13 07:44:56;;;;;;;9.20;8.70;;;;;;;13.08;30.06;101765.28;5034909;28;20508;-79
2022/03/13 07:47:22;;;;;;;8.75;8.35;;;;;;;12.37;30.94;101768.22;5033501;28;20377;-78
2022/03/13 07:49:48;;;;;;;8.38;7.97;;;;;;;11.87;30.75;101768.81;5037826;28;20079;-73
2022/03/13 07:52:13;;;;;;;8.55;8.15;;;;;;;12.43;30.05;101775.56;5033833;28;20064;-73
2022/03/13 07:54:39;;;;;;;8.55;8.15;;;;;;;11.62;30.75;101773.03;5025463;28;20033;-73
2022/03/13 07:57:05;;;;;;;8.00;7.60;;;;;;;11.11;30.92;101777.13;5025872;28;20105;-72
2022/03/13 07:59:30;;;;;;;9.45;8.95;;;;;;;10.46;31.39;101778.91;5032601;28;20400;-73
2022/03/13 08:01:56;;;;;;;10.25;9.65;;;;;;;10.40;31.74;101790.91;5049023;28;20396;-72
2022/03/13 08:04:21;;;;;;;8.15;7.75;;;;;;;10.41;31.86;101781.13;5031971;28;20028;-72
2022/03/13 08:06:47;;;;;;;9.73;9.20;;;;;;;11.21;30.77;101795.66;5029966;28;20025;-73
2022/03/13 08:09:12;;;;;;;9.52;9.02;;;;;;;11.03;30.87;101785.84;5038964;28;20033;-71
2022/03/13 08:11:38;;;;;;;8.20;7.80;;;;;;;11.24;31.18;101790.91;5044448;28;20083;-72
2022/03/13 08:14:07;;;;;;;8.18;7.78;;;;;;;11.64;30.25;101781.69;5012298;28;20413;-73
2022/03/13 08:16:33;;;;;;;8.52;8.13;;;;;;;14.23;27.33;101796.47;5036265;28;20025;-71
2022/03/13 08:18:58;;;;;;;8.15;7.75;;;;;;;13.96;27.23;101786.16;5048712;28;20488;-72
2022/03/13 08:21:24;;;;;;;8.00;7.60;;;;;;;15.08;25.56;101796.84;5039987;28;20035;-73
2022/03/13 08:23:49;;;;;;;7.60;7.30;;;;;;;16.39;24.03;101794.16;5022903;28;20037;-74
2022/03/13 08:26:15;;;;;;;7.82;7.53;;;;;;;15.41;25.33;101804.69;5033587;28;20477;-73
2022/03/13 08:28:44;;;;;;;7.75;7.45;;;;;;;12.81;26.84;101789.44;5027683;28;20103;-74
2022/03/13 08:31:10;;;;;;;8.52;8.13;;;;;;;12.14;29.27;101794.47;5027599;28;20017;-73
2022/03/13 08:33:36;;;;;;;8.02;7.70;;;;;;;12.98;26.91;101797.34;5039684;28;20021;-74
2022/03/13 08:36:02;;;;;;;7.95;7.63;;;;;;;16.64;23.28;101801.94;5018232;28;20049;-73
2022/03/13 08:38:28;;;;;;;8.32;7.93;;;;;;;15.09;23.87;101801.16;5032512;28;20025;-74
2022/03/13 08:40:54;;;;;;;8.00;7.70;;;;;;;17.04;22.48;101795.31;5022251;28;20100;-74
2022/03/13 08:43:20;;;;;;;8.23;7.85;;;;;;;17.02;22.07;101800.03;5038194;28;20051;-73
2022/03/13 08:45:46;;;;;;;7.88;7.57;;;;;;;17.17;21.85;101792.81;5033736;28;20097;-74
2022/03/13 08:48:13;;;;;;;7.85;7.55;;;;;;;15.13;22.97;101794.50;5035279;28;20036;-73
2022/03/13 08:50:38;;;;;;;8.10;7.75;;;;;;;14.77;23.41;101801.28;5021755;28;20017;-75
2022/03/13 08:53:04;;;;;;;9.18;8.77;;;;;;;15.43;23.68;101790.16;5034346;28;20037;-74
2022/03/13 08:55:29;;;;;;;8.90;8.50;;;;;;;16.93;21.52;101793.13;5034730;28;20033;-75
2022/03/13 08:57:55;;;;;;;10.13;9.63;;;;;;;16.36;22.36;101797.19;5030323;28;20084;-75
2022/03/13 09:00:24;;;;;;;8.65;8.25;;;;;;;16.41;22.49;101793.97;5030084;28;20037;-75
2022/03/13 09:02:50;;;;;;;9.48;8.98;;;;;;;15.82;21.88;101799.16;5029475;28;20029;-75
2022/03/13 09:05:16;;;;;;;9.43;8.93;;;;;;;14.15;24.03;101792.97;5030297;28;20038;-75
2022/03/13 09:07:43;;;;;;;8.77;8.38;;;;;;;14.17;23.48;101790.97;5019557;28;20041;-75
2022/03/13 09:10:09;;;;;;;8.63;8.23;;;;;;;15.45;21.96;101796.16;5023574;28;20033;-75
2022/03/13 09:12:35;;;;;;;9.02;8.57;;;;;;;15.93;21.15;101799.53;5029264;28;20155;-75
2022/03/13 09:15:03;;;;;;;8.60;8.20;;;;;;;15.32;21.92;101795.88;5030138;28;20065;-75
2022/03/13 09:17:28;;;;;;;8.52;8.13;;;;;;;11.57;24.20;101793.91;5028497;28;20055;-75
2022/03/13 09:19:55;;;;;;;8.82;8.38;;;;;;;11.97;25.18;101812.13;5050340;28;20476;-76
2022/03/13 09:22:22;;;;;;;8.85;8.45;;;;;;;11.54;25.71;101802.19;5044223;28;20021;-77
2022/03/13 09:24:48;;;;;;;8.60;8.20;;;;;;;12.42;24.45;101812.00;5033404;28;20537;-76
2022/03/13 09:27:15;;;;;;;8.50;8.10;;;;;;;8.17;29.32;101789.41;5016958;28;20044;-76
2022/03/13 09:29:40;;;;;;;9.27;8.77;;;;;;;9.19;28.24;101802.81;5031071;28;20714;-75
2022/03/13 09:32:07;;;;;;;8.60;8.20;;;;;;;10.75;26.97;101808.84;5013075;28;20034;-77
2022/03/13 09:34:34;;;;;;;9.77;9.18;;;;;;;9.24;27.23;101782.03;5027222;28;20475;-77
2022/03/13 09:37:03;;;;;;;8.15;7.75;;;;;;;9.77;27.50;101811.72;5023675;28;20033;-76
2022/03/13 09:39:30;;;;;;;8.98;8.50;;;;;;;9.46;28.58;101807.47;5029118;28;20026;-77
2022/03/13 09:41:56;;;;;;;9.23;8.73;;;;;;;9.90;27.80;101806.97;5023400;28;20033;-76
2022/03/13 09:44:21;;;;;;;11.00;10.30;;;;;;;9.55;28.29;101809.31;5019736;28;20022;-77
2022/03/13 09:46:47;;;;;;;8.45;8.05;;;;;;;9.93;27.22;101797.91;5039329;28;20045;-77
2022/03/13 09:49:16;;;;;;;8.30;7.90;;;;;;;9.07;27.95;101805.53;5031448;28;20017;-77
2022/03/13 09:51:42;;;;;;;8.30;7.90;;;;;;;7.81;30.04;101797.75;5026161;28;20030;-77
2022/03/13 09:54:08;;;;;;;8.80;8.32;;;;;;;8.45;30.48;101803.00;5031608;28;20143;-76
2022/03/13 09:56:35;;;;;;;8.00;7.60;;;;;;;8.91;29.55;101812.28;5029356;28;20493;-76
2022/03/13 09:59:02;;;;;;;9.10;8.60;;;;;;;9.15;29.82;101812.81;5008427;28;20030;-75
2022/03/13 10:01:28;;;;;;;8.38;7.97;;;;;;;9.30;29.62;101815.91;5023916;28;20033;-77
2022/03/13 10:03:54;;;;;;;8.32;7.93;;;;;;;9.02;30.18;101820.13;5029362;28;20063;-76
2022/03/13 10:06:21;;;;;;;10.02;9.43;;;;;;;8.09;31.14;101810.38;5032453;28;20602;-77
2022/03/13 10:08:46;;;;;;;8.50;8.07;;;;;;;8.62;31.11;101807.69;5019711;28;20030;-75
2022/03/13 10:11:12;;;;;;;8.73;8.25;;;;;;;8.44;31.31;101806.59;5032376;28;20049;-78
2022/03/13 10:13:39;;;;;;;8.82;8.32;;;;;;;8.54;30.92;101811.00;5035308;28;20033;-76
2022/03/13 10:16:06;;;;;;;8.25;7.85;;;;;;;8.07;30.75;101811.44;5030672;28;20056;-78
2022/03/13 10:18:33;;;;;;;8.07;7.68;;;;;;;8.92;30.22;101808.69;5044181;28;20512;-76
2022/03/13 10:21:09;;;;;;;8.77;8.27;;;;;;;8.54;30.99;101818.09;5043764;28;20044;-75
2022/03/13 10:23:36;;;;;;;8.02;7.63;;;;;;;8.57;30.74;101818.66;5034817;28;20832;-75
2022/03/13 10:26:02;;;;;;;8.02;7.63;;;;;;;8.67;30.24;101821.38;5034402;28;20029;-71
2022/03/13 10:28:30;;;;;;;7.82;7.43;;;;;;;8.14;30.17;101807.31;5039694;28;20029;-68
2022/03/13 10:30:58;;;;;;;8.65;8.15;;;;;;;7.55;31.48;101810.41;5033350;28;20022;-67
2022/03/13 10:33:42;;;;;;;8.15;7.75;;;;;;;7.48;31.51;101797.69;5034157;28;20028;-67
2022/03/13 10:36:09;;;;;;;8.13;7.72;;;;;;;8.40;31.34;101816.59;5021290;28;20038;-66
2022/03/13 10:38:35;;;;;;;8.30;7.90;;;;;;;6.73;32.75;101813.34;5015979;28;20029;-68
2022/03/13 10:41:03;;;;;;;8.25;7.85;;;;;;;5.27;35.32;101809.22;5022512;28;20030;-70
2022/03/13 10:43:29;;;;;;;8.20;7.80;;;;;;;5.56;35.77;101809.78;5018713;28;20025;-71
2022/03/13 10:45:56;;;;;;;8.73;8.23;;;;;;;6.87;33.70;101807.00;5029702;28;20021;-69
2022/03/13 10:48:27;;;;;;;8.13;7.72;;;;;;;7.24;33.11;101809.38;5024895;28;20026;-68
2022/03/13 10:50:54;;;;;;;7.97;7.57;;;;;;;7.89;31.78;101808.50;5041116;28;20029;-67
2022/03/13 10:53:21;;;;;;;8.73;8.23;;;;;;;8.32;30.89;101809.28;5030759;28;20021;-67
2022/03/13 10:56:07;;;;;;;8.18;7.78;;;;;;;5.59;34.90;101809.56;5046032;28;20060;-67
2022/03/13 10:58:40;;;;;;;8.32;7.93;;;;;;;5.63;35.26;101815.44;5035628;28;20111;-66
2022/03/13 11:01:16;;;;;;;9.02;8.52;;;;;;;6.64;33.96;101816.69;5043551;28;20079;-66
2022/03/13 11:03:56;;;;;;;8.20;7.80;;;;;;;6.77;33.96;101812.16;5039429;28;20029;-65
2022/03/13 11:06:23;;;;;;;7.90;7.50;;;;;;;5.39;35.58;101811.00;5029177;28;20025;-68
2022/03/13 11:08:52;;;;;;;9.55;8.95;;;;;;;5.94;35.22;101814.06;5036399;28;20029;-67
2022/03/13 11:11:18;;;;;;;8.65;8.15;;;;;;;6.86;33.93;101815.88;5035245;28;20541;-67
2022/03/13 11:13:52;;;;;;;8.20;7.80;;;;;;;7.45;32.83;101818.25;5032192;28;20042;-68
2022/03/13 11:16:22;;;;;;;9.18;8.65;;;;;;;5.32;35.87;101820.28;5023046;28;20026;-67
2022/03/13 11:18:51;;;;;;;8.85;8.35;;;;;;;4.99;36.62;101810.31;5026667;28;20061;-67
2022/03/13 11:21:18;;;;;;;8.40;8.00;;;;;;;6.61;34.61;101817.78;5037008;28;20017;-65
2022/03/13 11:23:43;;;;;;;8.23;7.82;;;;;;;6.80;34.25;101821.63;5020358;28;20033;-66